Time;durP1;ratioP1;P1;durP2;ratioP2;P2;SDS_P1;SDS_P2;PMS_P1;PMS_P2;Temp;Humidity;BMP_temperature;BMP_pressure;BME280_temperature;BME280_humidity;BME280_pressure;Samples;Min_cycle;Max_cycle;Signal;HPM_P1;HPM_P2
2022/03/13 00:00:20;;;;;;;;;3.00;2.00;;;;;10.41;81.05;100767.66;6306411;22;45223;-67
2022/03/13 00:02:46;;;;;;;;;8.25;8.25;;;;;10.44;81.14;100777.09;6305847;22;45291;-69
2022/03/13 00:05:16;;;;;;;;;11.00;9.00;;;;;10.44;80.51;100772.75;6306436;22;45369;-67
2022/03/13 00:07:43;;;;;;;;;9.00;8.25;;;;;10.47;80.47;100775.28;6307352;22;46321;-67
2022/03/13 00:10:08;;;;;;;;;10.00;6.25;;;;;10.52;80.62;100772.53;6309541;22;45448;-68
2022/03/13 00:12:35;;;;;;;;;16.75;8.00;;;;;10.53;79.61;100764.69;6309867;22;45233;-67
2022/03/13 00:15:03;;;;;;;;;9.75;8.00;;;;;10.55;79.54;100768.09;6307746;22;45198;-66
2022/03/13 00:17:29;;;;;;;;;7.50;7.00;;;;;10.56;79.81;100764.63;6308582;22;45395;-66
2022/03/13 00:20:00;;;;;;;;;9.50;8.00;;;;;10.57;79.46;100768.06;6309713;22;45747;-66
2022/03/13 00:22:27;;;;;;;;;12.75;9.75;;;;;10.54;79.48;100761.22;6309932;22;45276;-66
2022/03/13 00:24:53;;;;;;;;;8.00;7.25;;;;;10.56;78.92;100762.00;6308919;22;45112;-66
2022/03/13 00:27:18;;;;;;;;;8.25;7.00;;;;;10.53;79.00;100762.09;6309129;22;45936;-67
2022/03/13 00:29:44;;;;;;;;;10.75;8.00;;;;;10.57;78.53;100768.91;6309060;22;45105;-65
2022/03/13 00:32:09;;;;;;;;;8.00;7.50;;;;;10.56;78.41;100755.97;6308563;22;45151;-66
2022/03/13 00:34:35;;;;;;;;;7.50;7.00;;;;;10.56;78.77;100758.56;6333889;22;45824;-65
2022/03/13 00:37:00;;;;;;;;;8.75;6.00;;;;;10.56;78.35;100764.63;6308358;22;45241;-65
2022/03/13 00:39:26;;;;;;;;;10.50;6.25;;;;;10.55;78.45;100757.72;6309004;22;45282;-65
2022/03/13 00:41:52;;;;;;;;;8.00;7.00;;;;;10.57;77.89;100762.88;6309439;22;45244;-66
2022/03/13 00:44:19;;;;;;;;;13.50;10.25;;;;;10.57;78.21;100758.53;6309487;22;45242;-66
2022/03/13 00:46:45;;;;;;;;;10.25;7.00;;;;;10.59;77.86;100761.06;6307995;22;45447;-66
2022/03/13 00:49:10;;;;;;;;;8.25;8.25;;;;;10.60;77.67;100758.44;6309613;22;45274;-65
2022/03/13 00:51:36;;;;;;;;;6.00;6.00;;;;;10.62;77.41;100750.63;6332156;22;45117;-64
2022/03/13 00:54:02;;;;;;;;;7.50;7.50;;;;;10.64;77.42;100751.44;6307085;22;45260;-64
2022/03/13 00:56:27;;;;;;;;;8.00;6.75;;;;;10.65;76.93;100742.75;6307515;22;45183;-66
2022/03/13 00:58:53;;;;;;;;;7.50;6.00;;;;;10.63;77.24;100750.56;6307347;22;45175;-67
2022/03/13 01:01:18;;;;;;;;;7.75;6.50;;;;;10.65;77.00;100747.94;6308032;22;45276;-67
2022/03/13 01:03:43;;;;;;;;;6.25;6.25;;;;;10.70;76.82;100747.81;6307662;22;45210;-67
2022/03/13 01:06:09;;;;;;;;;7.67;6.00;;;;;10.71;76.77;100744.31;6307695;22;45357;-67
2022/03/13 01:08:35;;;;;;;;;9.25;7.00;;;;;10.72;76.47;100751.22;6307382;22;45254;-65
2022/03/13 01:11:02;;;;;;;;;8.50;7.25;;;;;10.75;76.39;100743.31;6307851;22;45669;-63
2022/03/13 01:13:28;;;;;;;;;9.00;6.75;;;;;10.77;76.24;100739.78;6305883;22;45353;-64
2022/03/13 01:16:11;;;;;;;;;7.75;7.00;;;;;10.78;76.06;100735.44;6308833;22;46064;-63
2022/03/13 01:18:44;;;;;;;;;5.00;4.00;;;;;10.80;75.67;100734.47;6309292;22;45736;-64
2022/03/13 01:21:11;;;;;;;;;8.25;6.00;;;;;10.81;75.70;100731.03;6309467;22;45167;-63
2022/03/13 01:23:39;;;;;;;;;9.00;7.25;;;;;10.83;75.51;100739.63;6308572;22;45273;-64
2022/03/13 01:26:22;;;;;;;;;7.00;6.00;;;;;10.88;75.35;100736.88;6308638;22;45246;-64
2022/03/13 01:28:56;;;;;;;;;5.25;4.00;;;;;10.87;75.24;100719.59;6309184;22;45204;-64
2022/03/13 01:31:34;;;;;;;;;3.50;3.50;;;;;10.88;74.77;100727.34;6308536;22;45308;-64
2022/03/13 01:34:00;;;;;;;;;7.00;3.75;;;;;10.88;74.69;100732.53;6306780;22;45393;-64
2022/03/13 01:36:26;;;;;;;;;7.00;4.25;;;;;10.87;74.70;100719.59;6307433;22;45523;-64
2022/03/13 01:38:54;;;;;;;;;6.50;6.50;;;;;10.89;74.44;100712.59;6307527;22;45861;-64
2022/03/13 01:41:20;;;;;;;;;4.50;4.00;;;;;10.88;74.50;100708.28;6307617;22;45548;-64
2022/03/13 01:43:46;;;;;;;;;7.25;5.25;;;;;10.91;74.12;100708.19;6308066;22;45617;-64
2022/03/13 01:46:11;;;;;;;;;9.25;6.75;;;;;10.88;74.17;100709.13;6308152;22;45360;-64
2022/03/13 01:48:59;;;;;;;;;5.25;5.25;;;;;10.93;73.72;100707.25;6308210;22;45330;-64
2022/03/13 01:51:25;;;;;;;;;8.75;6.00;;;;;10.95;73.77;100705.44;6334752;22;45167;-65
2022/03/13 01:53:56;;;;;;;;;6.50;4.25;;;;;10.97;73.45;100695.84;6308972;22;45238;-65
2022/03/13 01:56:23;;;;;;;;;9.25;5.75;;;;;11.00;73.41;100697.50;6307289;22;45435;-65
2022/03/13 01:58:51;;;;;;;;;7.00;3.00;;;;;11.00;73.25;100697.50;6305255;22;45346;-65
2022/03/13 02:01:18;;;;;;;;;6.00;5.25;;;;;11.02;73.33;100695.75;6305506;22;45580;-65
2022/03/13 02:03:45;;;;;;;;;6.00;3.75;;;;;11.03;73.25;100686.19;6307182;22;45514;-64
2022/03/13 02:06:10;;;;;;;;;8.00;6.75;;;;;11.06;73.18;100689.53;6307539;22;46611;-64
2022/03/13 02:08:37;;;;;;;;;5.50;5.25;;;;;11.04;72.55;100687.91;6307761;22;45331;-64
2022/03/13 02:11:04;;;;;;;;;4.50;4.50;;;;;11.00;72.47;100679.31;6310742;22;45349;-64
2022/03/13 02:13:31;;;;;;;;;7.50;4.00;;;;;10.95;73.12;100676.84;6310480;22;45301;-64
2022/03/13 02:15:56;;;;;;;;;9.00;4.75;;;;;10.91;72.81;100677.00;6310153;22;46084;-64
2022/03/13 02:18:22;;;;;;;;;8.00;5.50;;;;;10.85;72.65;100672.84;6310234;22;45153;-65
2022/03/13 02:20:47;;;;;;;;;7.75;5.50;;;;;10.72;72.89;100663.69;6310254;22;45393;-65
2022/03/13 02:23:20;;;;;;;;;7.50;7.00;;;;;10.64;73.09;100670.88;6309531;22;45365;-65
2022/03/13 02:25:51;;;;;;;;;7.50;3.50;;;;;10.56;73.31;100663.28;6309897;22;45417;-65
2022/03/13 02:28:22;;;;;;;;;9.25;7.00;;;;;10.51;73.35;100661.72;6309764;22;45246;-65
2022/03/13 02:30:49;;;;;;;;;7.75;7.00;;;;;10.44;73.96;100653.25;6310068;22;45234;-65
2022/03/13 02:33:19;;;;;;;;;9.00;8.25;;;;;10.43;73.74;100654.13;6310134;22;45385;-65
2022/03/13 02:35:56;;;;;;;;;6.50;6.00;;;;;10.38;73.67;100656.00;6310220;22;46042;-65
2022/03/13 02:38:23;;;;;;;;;7.00;7.00;;;;;10.36;73.63;100650.84;6309521;22;45269;-64
2022/03/13 02:40:49;;;;;;;;;9.75;8.25;;;;;10.32;74.21;100648.38;6310367;22;45240;-64
2022/03/13 02:43:16;;;;;;;;;6.75;6.75;;;;;10.26;73.71;100646.81;6310286;22;45444;-64
2022/03/13 02:45:41;;;;;;;;;5.00;3.75;;;;;10.23;74.26;100638.25;6310059;22;45362;-64
2022/03/13 02:48:08;;;;;;;;;7.00;6.00;;;;;10.18;74.42;100640.06;6310062;22;45242;-65
2022/03/13 02:50:35;;;;;;;;;10.75;7.25;;;;;10.18;74.11;100634.88;6310577;22;45285;-66
2022/03/13 02:53:01;;;;;;;;;9.75;8.00;;;;;10.14;74.51;100646.25;6309588;22;45448;-66
2022/03/13 02:55:26;;;;;;;;;8.25;8.00;;;;;10.09;74.65;100636.00;6309949;22;45180;-66
2022/03/13 02:57:52;;;;;;;;;8.50;8.25;;;;;10.07;74.86;100633.44;6310050;22;45214;-66
2022/03/13 03:00:19;;;;;;;;;11.75;8.25;;;;;10.06;74.99;100636.94;6310469;22;45186;-65
2022/03/13 03:02:45;;;;;;;;;7.50;7.00;;;;;10.03;74.60;100637.03;6310116;22;45088;-64
2022/03/13 03:05:11;;;;;;;;;17.75;9.25;;;;;9.99;75.00;100632.78;6310038;22;45650;-64
2022/03/13 03:07:38;;;;;;;;;12.00;10.25;;;;;9.98;75.18;100645.81;6310061;22;45203;-64
2022/03/13 03:10:05;;;;;;;;;12.00;10.25;;;;;9.95;75.11;100633.75;6309713;22;45217;-64
2022/03/13 03:12:34;;;;;;;;;13.00;9.00;;;;;9.94;75.20;100629.47;6310066;22;45365;-64
2022/03/13 03:14:59;;;;;;;;;7.75;7.75;;;;;9.91;74.98;100632.16;6310149;22;45575;-64
2022/03/13 03:17:25;;;;;;;;;7.75;7.75;;;;;9.91;74.83;100629.56;6310160;22;45170;-64
2022/03/13 03:19:50;;;;;;;;;6.50;6.50;;;;;9.87;75.20;100635.72;6310367;22;45145;-63
2022/03/13 03:22:15;;;;;;;;;11.50;8.75;;;;;9.87;75.19;100637.47;6310009;22;45217;-64
2022/03/13 03:24:41;;;;;;;;;11.75;9.00;;;;;9.85;74.85;100629.72;6309364;22;46368;-63
2022/03/13 03:27:06;;;;;;;;;9.00;9.00;;;;;9.81;75.11;100620.31;6309729;22;45353;-64
2022/03/13 03:29:32;;;;;;;;;10.75;8.00;;;;;9.81;75.03;100624.63;6310175;22;45216;-64
2022/03/13 03:31:58;;;;;;;;;10.25;7.00;;;;;9.80;74.97;100622.94;6309750;22;45237;-64
2022/03/13 03:34:26;;;;;;;;;6.50;3.50;;;;;9.78;74.78;100620.38;6309927;22;45241;-63
2022/03/13 03:36:57;;;;;;;;;8.00;8.00;;;;;9.76;75.10;100623.00;6309155;22;45733;-63
2022/03/13 03:39:26;;;;;;;;;9.50;9.25;;;;;9.76;74.82;100627.34;6309881;22;45189;-64
2022/03/13 03:41:53;;;;;;;;;6.25;6.25;;;;;9.75;74.49;100618.72;6310136;22;45178;-63
2022/03/13 03:44:18;;;;;;;;;8.25;7.75;;;;;9.76;75.16;100619.56;6309738;22;45102;-64
2022/03/13 03:46:46;;;;;;;;;8.00;7.75;;;;;9.75;75.12;100628.25;6310027;22;45223;-64
2022/03/13 03:49:12;;;;;;;;;8.25;7.00;;;;;9.74;74.74;100621.34;6310151;22;45277;-64
2022/03/13 03:51:38;;;;;;;;;7.00;6.25;;;;;9.71;74.44;100618.84;6309973;22;45342;-63
2022/03/13 03:54:04;;;;;;;;;8.25;8.00;;;;;9.69;74.57;100615.44;6308599;22;46169;-64
2022/03/13 03:56:30;;;;;;;;;7.75;7.00;;;;;9.68;74.68;100622.38;6307899;22;45253;-64
2022/03/13 03:58:56;;;;;;;;;9.25;7.25;;;;;9.64;74.54;100610.38;6310142;22;45198;-64
2022/03/13 04:01:22;;;;;;;;;8.50;8.50;;;;;9.65;74.32;100613.81;6309423;22;45301;-64
2022/03/13 04:03:47;;;;;;;;;6.75;6.25;;;;;9.60;74.70;100621.69;6308728;22;46156;-65
2022/03/13 04:06:13;;;;;;;;;9.25;9.25;;;;;9.61;74.55;100613.03;6309056;22;45186;-65
2022/03/13 04:08:38;;;;;;;;;11.75;7.75;;;;;9.58;74.45;100617.44;6308944;22;45391;-65
2022/03/13 04:11:04;;;;;;;;;12.00;8.25;;;;;9.56;74.42;100612.28;6333861;22;45711;-65
2022/03/13 04:13:29;;;;;;;;;11.75;10.25;;;;;9.59;74.57;100608.75;6309857;22;45209;-65
2022/03/13 04:15:56;;;;;;;;;8.50;6.75;;;;;9.58;74.55;100607.91;6309883;22;45244;-65
2022/03/13 04:18:21;;;;;;;;;11.75;10.00;;;;;9.61;74.14;100617.34;6309890;22;45341;-65
2022/03/13 04:20:47;;;;;;;;;9.00;8.00;;;;;9.58;74.38;100615.69;6309781;22;45271;-65
2022/03/13 04:23:12;;;;;;;;;9.50;7.00;;;;;9.56;74.57;100616.63;6309269;22;45246;-66
2022/03/13 04:25:38;;;;;;;;;10.50;9.00;;;;;9.56;74.27;100619.22;6309285;22;45276;-66
2022/03/13 04:28:04;;;;;;;;;9.50;9.00;;;;;9.59;74.61;100622.59;6309290;22;45421;-65
2022/03/13 04:30:31;;;;;;;;;10.50;8.00;;;;;9.64;74.35;100630.28;6309562;22;45515;-66
2022/03/13 04:32:57;;;;;;;;;8.00;7.00;;;;;9.67;73.90;100633.63;6309521;22;45616;-67
2022/03/13 04:35:23;;;;;;;;;6.50;4.50;;;;;9.70;74.22;100624.91;6309530;22;45765;-67
2022/03/13 04:37:49;;;;;;;;;6.50;4.00;;;;;9.70;73.86;100633.56;6309132;22;45417;-67
2022/03/13 04:40:14;;;;;;;;;8.25;7.75;;;;;9.73;73.88;100630.88;6309428;22;45171;-67
2022/03/13 04:42:39;;;;;;;;;8.25;7.75;;;;;9.75;74.08;100633.44;6309609;22;45929;-67
2022/03/13 04:45:06;;;;;;;;;8.00;8.00;;;;;9.75;73.93;100626.50;6309402;22;45118;-67
2022/03/13 04:47:32;;;;;;;;;8.25;7.00;;;;;9.81;73.43;100630.69;6306571;22;45333;-67
2022/03/13 04:49:58;;;;;;;;;6.75;6.75;;;;;9.83;73.80;100630.66;6309145;22;44865;-67
2022/03/13 04:52:23;;;;;;;;;7.50;6.00;;;;;9.85;72.86;100631.47;6308979;22;45392;-67
2022/03/13 04:54:48;;;;;;;;;18.50;10.00;;;;;9.86;72.80;100623.63;6308789;22;45171;-67
2022/03/13 04:57:14;;;;;;;;;10.50;6.25;;;;;9.86;73.09;100623.63;6309486;22;45243;-67
2022/03/13 04:59:39;;;;;;;;;6.25;6.25;;;;;9.86;72.61;100615.00;6309200;22;45456;-67
2022/03/13 05:02:05;;;;;;;;;8.50;7.00;;;;;9.88;72.79;100618.41;6309210;22;45212;-67
2022/03/13 05:04:32;;;;;;;;;6.75;6.00;;;;;9.91;73.05;100618.31;6309132;22;45237;-67
2022/03/13 05:06:58;;;;;;;;;8.00;6.00;;;;;9.93;72.61;100625.16;6310226;22;45139;-68
2022/03/13 05:09:23;;;;;;;;;7.00;6.00;;;;;9.95;72.03;100619.94;6334466;22;45346;-67
2022/03/13 05:11:48;;;;;;;;;6.00;6.00;;;;;9.94;72.12;100611.28;6310899;22;45193;-67
2022/03/13 05:14:14;;;;;;;;;4.50;2.00;;;;;9.94;72.20;100613.88;6310875;22;45140;-67
2022/03/13 05:16:39;;;;;;;;;3.75;3.75;;;;;9.94;71.95;100613.88;6311067;22;45171;-67
2022/03/13 05:19:06;;;;;;;;;7.75;6.75;;;;;9.92;71.60;100602.69;6310682;22;45414;-66
2022/03/13 05:21:33;;;;;;;;;7.00;3.00;;;;;9.94;71.84;100610.44;6310720;22;45259;-66
2022/03/13 05:23:59;;;;;;;;;4.50;4.50;;;;;9.92;71.27;100607.88;6309951;22;45718;-66
2022/03/13 05:26:25;;;;;;;;;7.25;7.00;;;;;9.89;71.43;100607.97;6309551;22;45223;-66
2022/03/13 05:28:50;;;;;;;;;3.00;2.00;;;;;9.89;71.76;100609.72;6309960;22;45235;-66
2022/03/13 05:31:15;;;;;;;;;4.00;3.00;;;;;9.91;71.57;100611.38;6310295;22;45195;-66
2022/03/13 05:33:41;;;;;;;;;8.00;5.00;;;;;9.92;71.36;100618.28;6309855;22;45272;-66
2022/03/13 05:36:07;;;;;;;;;6.25;4.00;;;;;9.90;71.18;100612.28;6310576;22;45211;-66
2022/03/13 05:38:35;;;;;;;;;3.25;3.25;;;;;9.90;71.44;100620.06;6308845;22;45443;-66
2022/03/13 05:41:04;;;;;;;;;5.00;3.75;;;;;9.85;71.36;100621.94;6310028;22;45209;-66
2022/03/13 05:43:31;;;;;;;;;6.00;4.25;;;;;9.91;71.53;100621.75;6309867;22;45756;-66
2022/03/13 05:45:56;;;;;;;;;6.75;6.00;;;;;9.88;71.32;100616.66;6310723;22;45160;-66
2022/03/13 05:48:22;;;;;;;;;6.50;4.00;;;;;9.90;70.94;100612.28;6310550;22;45199;-65
2022/03/13 05:50:48;;;;;;;;;4.25;4.00;;;;;9.93;70.81;100619.97;6310540;22;45230;-67
2022/03/13 05:53:14;;;;;;;;;5.00;3.75;;;;;9.93;71.01;100621.72;6310049;22;45208;-65
2022/03/13 05:55:39;;;;;;;;;2.75;2.75;;;;;9.92;71.12;100618.28;6310199;22;45365;-65
2022/03/13 05:58:05;;;;;;;;;4.25;4.25;;;;;9.94;70.45;100626.00;6310470;22;45369;-65
2022/03/13 06:00:32;;;;;;;;;7.00;6.00;;;;;9.93;70.41;100625.16;6309978;22;45206;-65
2022/03/13 06:02:59;;;;;;;;;5.75;4.25;;;;;9.92;70.74;100626.06;6309881;22;45853;-65
2022/03/13 06:05:24;;;;;;;;;3.00;2.00;;;;;9.92;70.76;100620.88;6310408;22;45317;-65
2022/03/13 06:07:51;;;;;;;;;5.50;3.25;;;;;9.95;70.59;100623.38;6334197;22;45304;-65
2022/03/13 06:10:17;;;;;;;;;7.25;4.00;;;;;9.95;70.63;100623.38;6309891;22;45229;-68
2022/03/13 06:12:43;;;;;;;;;4.25;4.25;;;;;9.95;70.43;100638.94;6310662;22;45693;-68
2022/03/13 06:15:11;;;;;;;;;5.50;2.50;;;;;9.94;70.58;100626.00;6310319;22;45144;-68
2022/03/13 06:17:42;;;;;;;;;3.75;2.75;;;;;9.95;70.40;100631.16;6309538;22;45251;-68
2022/03/13 06:20:10;;;;;;;;;3.50;3.50;;;;;9.97;70.06;100641.50;6309935;22;45175;-67
2022/03/13 06:22:37;;;;;;;;;5.00;3.00;;;;;9.96;69.88;100634.63;6310204;22;45167;-67
2022/03/13 06:25:03;;;;;;;;;5.50;3.50;;;;;9.94;69.81;100642.44;6309917;22;45253;-67
2022/03/13 06:27:29;;;;;;;;;6.00;5.50;;;;;9.94;70.19;100645.03;6309814;22;45496;-68
2022/03/13 06:29:55;;;;;;;;;6.00;3.00;;;;;9.94;69.90;100639.00;6334529;22;46536;-68
2022/03/13 06:32:20;;;;;;;;;2.50;2.50;;;;;9.95;69.97;100643.28;6310294;22;45267;-66
2022/03/13 06:34:45;;;;;;;;;7.00;3.50;;;;;9.96;70.07;100643.25;6310588;22;45220;-67
2022/03/13 06:37:12;;;;;;;;;5.50;3.00;;;;;9.97;69.76;100646.69;6309244;22;45088;-67
2022/03/13 06:39:37;;;;;;;;;3.75;3.75;;;;;9.99;69.89;100639.72;6309616;22;45960;-69
2022/03/13 06:42:03;;;;;;;;;2.25;2.25;;;;;9.98;69.29;100641.47;6310146;22;45230;-68
2022/03/13 06:44:28;;;;;;;;;3.00;3.00;;;;;9.98;69.43;100649.25;6310284;22;45350;-68
2022/03/13 06:46:54;;;;;;;;;4.00;3.00;;;;;10.01;69.30;100649.19;6309978;22;45224;-68
2022/03/13 06:49:20;;;;;;;;;3.00;3.00;;;;;10.02;69.21;100642.25;6309580;22;46019;-68
2022/03/13 06:51:45;;;;;;;;;6.00;3.50;;;;;10.07;69.78;100659.41;6309514;22;45218;-68
2022/03/13 06:54:11;;;;;;;;;3.50;3.50;;;;;10.09;69.17;100648.13;6309689;22;45573;-68
2022/03/13 06:56:38;;;;;;;;;6.75;3.75;;;;;10.10;69.67;100650.69;6309898;22;45289;-67
2022/03/13 06:59:04;;;;;;;;;3.00;2.25;;;;;10.14;69.40;100643.66;6309536;22;45262;-67
2022/03/13 07:01:30;;;;;;;;;5.00;3.00;;;;;10.18;69.28;100646.13;6309587;22;45281;-64
2022/03/13 07:03:56;;;;;;;;;3.00;3.00;;;;;10.23;69.12;100657.28;6309527;22;45290;-67
2022/03/13 07:06:21;;;;;;;;;5.00;3.00;;;;;10.28;68.57;100649.38;6333859;22;45610;-67
2022/03/13 07:08:46;;;;;;;;;3.00;3.00;;;;;10.28;68.51;100652.81;6308956;22;45300;-66
2022/03/13 07:11:12;;;;;;;;;5.50;3.25;;;;;10.31;68.11;100651.88;6309516;22;45198;-67
2022/03/13 07:13:37;;;;;;;;;5.50;5.50;;;;;10.37;68.48;100649.09;6309528;22;45334;-66
2022/03/13 07:16:04;;;;;;;;;3.00;3.00;;;;;10.40;68.51;100654.19;6308686;22;45172;-66
2022/03/13 07:18:30;;;;;;;;;4.00;3.00;;;;;10.47;68.37;100652.31;6308834;22;45198;-68
2022/03/13 07:20:56;;;;;;;;;3.25;3.25;;;;;10.51;67.95;100651.31;6308925;22;45726;-68
2022/03/13 07:23:22;;;;;;;;;6.00;3.00;;;;;10.52;67.85;100643.47;6309015;22;45314;-67
2022/03/13 07:25:51;;;;;;;;;4.00;1.75;;;;;10.57;67.31;100636.38;6309419;22;45357;-70
2022/03/13 07:28:18;;;;;;;;;3.00;3.00;;;;;10.65;67.51;100642.22;6308689;22;45315;-64
2022/03/13 07:30:44;;;;;;;;;7.00;3.00;;;;;10.81;67.44;100631.34;6309414;22;45196;-65
2022/03/13 07:33:10;;;;;;;;;3.00;3.00;;;;;10.98;67.23;100637.75;6309903;22;45231;-66
2022/03/13 07:35:36;;;;;;;;;2.25;2.25;;;;;11.13;66.61;100627.78;6309758;22;45549;-66
2022/03/13 07:38:03;;;;;;;;;3.00;3.00;;;;;11.20;65.89;100639.69;6308485;22;46457;-64
2022/03/13 07:40:28;;;;;;;;;4.50;4.00;;;;;11.24;65.85;100638.72;6309312;22;45321;-64
2022/03/13 07:42:54;;;;;;;;;3.75;2.00;;;;;11.25;64.93;100640.41;6333907;22;45261;-63
2022/03/13 07:45:20;;;;;;;;;5.75;4.50;;;;;11.19;64.66;100650.97;6309807;22;45193;-63
2022/03/13 07:47:45;;;;;;;;;3.25;3.00;;;;;11.18;64.89;100650.13;6309962;22;45961;-62
2022/03/13 07:50:11;;;;;;;;;2.75;2.25;;;;;11.20;65.13;100650.94;6310096;22;45253;-62
2022/03/13 07:52:36;;;;;;;;;4.00;4.00;;;;;11.23;64.42;100657.81;6309898;22;45575;-62
2022/03/13 07:55:02;;;;;;;;;6.25;4.00;;;;;11.28;64.69;100661.13;6309889;22;45302;-63
2022/03/13 07:57:28;;;;;;;;;2.50;2.00;;;;;11.22;64.15;100659.56;6309524;22;45245;-63
2022/03/13 07:59:54;;;;;;;;;4.00;4.00;;;;;11.19;64.25;100645.78;6333311;22;45737;-63
2022/03/13 08:02:19;;;;;;;;;2.50;2.50;;;;;11.19;63.01;100649.22;6309456;22;45388;-63
2022/03/13 08:04:45;;;;;;;;;3.50;2.00;;;;;11.24;63.89;100656.91;6309706;22;45343;-63
2022/03/13 08:07:10;;;;;;;;;3.25;3.25;;;;;11.31;62.98;100648.00;6309144;22;45912;-61
2022/03/13 08:09:36;;;;;;;;;1.25;1.25;;;;;11.35;63.75;100649.59;6308951;22;45191;-61
2022/03/13 08:12:03;;;;;;;;;4.00;4.00;;;;;11.41;63.29;100653.75;6309284;22;45366;-61
2022/03/13 08:14:28;;;;;;;;;3.00;2.00;;;;;11.51;63.27;100648.22;6309397;22;45326;-61
2022/03/13 08:16:54;;;;;;;;;4.50;2.00;;;;;11.53;62.98;100629.94;6309169;22;45487;-65
2022/03/13 08:19:19;;;;;;;;;2.50;2.25;;;;;11.65;62.35;100650.38;6333339;22;45281;-64
2022/03/13 08:21:45;;;;;;;;;2.00;2.00;;;;;11.70;62.86;100642.41;6309453;22;45183;-64
2022/03/13 08:24:13;;;;;;;;;7.75;4.00;;;;;11.81;62.41;100653.31;6308992;22;45440;-68
2022/03/13 08:26:39;;;;;;;;;6.00;4.25;;;;;11.86;62.25;100641.03;6307133;22;48226;-60
2022/03/13 08:29:06;;;;;;;;;4.00;4.00;;;;;11.95;62.16;100642.44;6309407;22;45674;-60
2022/03/13 08:31:33;;;;;;;;;2.25;2.00;;;;;12.04;61.73;100647.34;6309291;22;45257;-60
2022/03/13 08:33:59;;;;;;;;;2.25;2.25;;;;;12.11;61.65;100641.84;6308970;22;45239;-60
2022/03/13 08:36:25;;;;;;;;;5.25;3.00;;;;;12.17;61.72;100639.03;6308691;22;45494;-62
2022/03/13 08:38:50;;;;;;;;;3.75;2.00;;;;;12.10;60.61;100631.50;6309320;22;45218;-62
2022/03/13 08:41:15;;;;;;;;;2.00;2.00;;;;;12.11;60.18;100635.81;6310948;22;45343;-64
2022/03/13 08:43:41;;;;;;;;;5.00;2.75;;;;;12.12;60.65;100625.31;6309545;22;45324;-64
2022/03/13 08:46:06;;;;;;;;;3.00;2.00;;;;;12.26;60.05;100637.88;6307381;22;46046;-63
2022/03/13 08:48:32;;;;;;;;;2.75;2.75;;;;;12.32;59.87;100628.97;6306534;22;45243;-63
2022/03/13 08:50:57;;;;;;;;;3.00;2.75;;;;;12.38;59.88;100620.91;6305128;22;45279;-64
2022/03/13 08:53:23;;;;;;;;;2.00;2.00;;;;;12.54;59.62;100631.63;6306739;22;45377;-64
2022/03/13 08:55:49;;;;;;;;;3.00;2.25;;;;;12.65;59.53;100627.72;6307513;22;46076;-65
2022/03/13 08:58:14;;;;;;;;;1.75;1.75;;;;;12.76;58.84;100635.97;6308774;22;45253;-63
2022/03/13 09:00:41;;;;;;;;;5.00;3.00;;;;;12.85;57.79;100637.41;6309110;22;45317;-65
2022/03/13 09:03:07;;;;;;;;;3.25;3.25;;;;;12.95;58.70;100641.34;6309340;22;45489;-64
2022/03/13 09:05:32;;;;;;;;;3.75;2.50;;;;;13.07;57.77;100630.44;6308431;22;46023;-64
2022/03/13 09:07:58;;;;;;;;;3.75;3.75;;;;;13.21;58.21;100631.66;6309145;22;45297;-64
2022/03/13 09:10:23;;;;;;;;;1.00;1.00;;;;;13.29;57.66;100638.28;6310396;22;45215;-64
2022/03/13 09:12:49;;;;;;;;;3.00;3.00;;;;;13.36;56.75;100641.50;6310283;22;45386;-64
2022/03/13 09:15:14;;;;;;;;;4.00;2.00;;;;;13.44;57.21;100644.66;6308949;22;45346;-63
2022/03/13 09:17:40;;;;;;;;;4.00;3.25;;;;;13.54;56.77;100645.97;6308833;22;45281;-61
2022/03/13 09:20:06;;;;;;;;;3.00;2.00;;;;;13.63;56.63;100637.78;6309226;22;45277;-61
2022/03/13 09:22:32;;;;;;;;;2.00;2.00;;;;;13.79;55.89;100642.31;6309182;22;45286;-61
2022/03/13 09:25:00;;;;;;;;;3.00;2.00;;;;;13.91;55.62;100639.19;6307777;22;46988;-61
2022/03/13 09:27:30;;;;;;;;;2.50;2.50;;;;;14.06;55.27;100643.78;6309056;22;45179;-61
2022/03/13 09:29:57;;;;;;;;;2.50;2.50;;;;;14.15;55.25;100648.59;6309019;22;45294;-61
2022/03/13 09:32:24;;;;;;;;;4.75;2.00;;;;;14.21;55.16;100643.09;6308989;22;45251;-60
2022/03/13 09:34:50;;;;;;;;;2.75;2.50;;;;;14.19;53.76;100644.91;6281234;22;46086;-61
2022/03/13 09:37:16;;;;;;;;;5.00;3.00;;;;;14.19;54.28;100637.06;6309656;22;45156;-61
2022/03/13 09:39:43;;;;;;;;;3.25;2.25;;;;;14.15;54.31;100632.91;6311010;22;45266;-61
2022/03/13 09:42:09;;;;;;;;;1.00;1.00;;;;;14.14;54.84;100639.06;6311100;22;45190;-60
2022/03/13 09:44:34;;;;;;;;;2.00;1.50;;;;;14.15;54.39;100648.59;6310346;22;45345;-60
2022/03/13 09:47:00;;;;;;;;;3.00;2.75;;;;;14.08;54.03;100644.56;6310666;22;45246;-60
2022/03/13 09:49:27;;;;;;;;;3.75;2.00;;;;;13.96;53.87;100638.09;6310668;22;45446;-60
2022/03/13 09:51:53;;;;;;;;;1.25;1.25;;;;;13.90;53.69;100638.34;6307342;22;45579;-60
2022/03/13 09:54:18;;;;;;;;;1.75;1.75;;;;;13.87;53.82;100638.50;6309418;22;45937;-60
2022/03/13 09:56:44;;;;;;;;;3.50;1.25;;;;;13.94;53.82;100641.69;6308873;22;45163;-60
2022/03/13 09:59:09;;;;;;;;;4.00;2.00;;;;;13.99;53.88;100645.78;6309237;22;45219;-60
2022/03/13 10:01:35;;;;;;;;;4.50;3.00;;;;;14.00;53.95;100642.25;6309348;22;45536;-60
2022/03/13 10:04:01;;;;;;;;;2.00;2.00;;;;;14.02;53.76;100650.06;6308954;22;45495;-59
2022/03/13 10:06:26;;;;;;;;;3.00;2.00;;;;;14.01;54.26;100656.16;6308994;22;45523;-59
2022/03/13 10:08:52;;;;;;;;;6.00;3.00;;;;;14.03;53.84;100654.38;6310198;22;45238;-59
2022/03/13 10:11:33;;;;;;;;;4.50;3.00;;;;;14.07;53.24;100653.31;6334893;22;45432;-59
2022/03/13 10:14:06;;;;;;;;;3.50;2.00;;;;;14.02;53.12;100647.44;6310191;22;45219;-59
2022/03/13 10:16:37;;;;;;;;;3.00;1.50;;;;;13.94;53.57;100639.06;6310406;22;45220;-59
2022/03/13 10:19:16;;;;;;;;;1.00;1.00;;;;;13.93;53.35;100640.84;6307814;22;45326;-59
2022/03/13 10:22:02;;;;;;;;;1.00;1.00;;;;;13.84;53.44;100643.00;6307995;22;45510;-59
2022/03/13 10:24:28;;;;;;;;;2.00;1.50;;;;;13.81;53.27;100640.50;6308040;22;45262;-59
2022/03/13 10:27:09;;;;;;;;;2.50;2.50;;;;;13.72;52.85;100644.34;6309110;22;45244;-64
2022/03/13 10:29:34;;;;;;;;;3.50;1.00;;;;;13.62;52.52;100637.84;6309139;22;45371;-61
2022/03/13 10:32:00;;;;;;;;;2.00;2.00;;;;;13.49;53.30;100650.53;6308222;22;45289;-62
2022/03/13 10:34:26;;;;;;;;;1.75;1.50;;;;;13.44;53.60;100636.81;6309724;22;45364;-61
2022/03/13 10:36:52;;;;;;;;;4.00;4.00;;;;;13.38;53.56;100627.47;6307908;22;45174;-61
2022/03/13 10:39:20;;;;;;;;;2.00;2.00;;;;;13.39;54.38;100633.53;6309474;22;45184;-61
2022/03/13 10:41:51;;;;;;;;;2.00;2.00;;;;;13.42;54.32;100636.03;6309600;22;45250;-61
2022/03/13 10:44:19;;;;;;;;;4.00;1.00;;;;;13.46;54.50;100635.00;6307453;22;48076;-61
2022/03/13 10:46:51;;;;;;;;;1.50;1.50;;;;;13.52;54.53;100633.88;6309913;22;45171;-62
2022/03/13 10:49:31;;;;;;;;;30.50;23.25;;;;;13.55;54.02;100629.38;6309515;22;45152;-62
2022/03/13 10:51:57;;;;;;;;;10.25;7.00;;;;;13.54;54.12;100630.31;6309336;22;45444;-62
2022/03/13 10:54:37;;;;;;;;;4.00;1.75;;;;;13.54;54.05;100622.47;6309086;22;46522;-61
2022/03/13 10:57:11;;;;;;;;;3.00;2.00;;;;;13.54;54.45;100622.47;6310260;22;45564;-61
2022/03/13 10:59:42;;;;;;;;;2.00;2.00;;;;;13.54;54.37;100622.47;6309649;22;45229;-63
2022/03/13 11:02:16;;;;;;;;;3.00;2.00;;;;;13.53;54.06;100618.16;6310335;22;45495;-64
2022/03/13 11:04:46;;;;;;;;;8.25;5.75;;;;;13.57;54.64;100616.25;6309055;22;45325;-65
2022/03/13 11:07:11;;;;;;;;;3.25;3.25;;;;;13.65;54.37;100622.88;6309136;22;45769;-64
2022/03/13 11:09:36;;;;;;;;;2.75;2.75;;;;;13.73;53.92;100619.09;6310467;22;45345;-76
2022/03/13 11:12:06;;;;;;;;;4.00;3.00;;;;;13.74;54.20;100626.00;6310556;22;45371;-66
2022/03/13 11:14:34;;;;;;;;;3.00;1.00;;;;;13.75;54.21;100627.69;6309644;22;46889;-66
2022/03/13 11:17:01;;;;;;;;;3.00;2.00;;;;;13.77;53.79;100626.72;6308298;22;45338;-67
2022/03/13 11:19:27;;;;;;;;;3.00;1.00;;;;;13.79;54.48;100631.88;6308418;22;45464;-69
2022/03/13 11:21:53;;;;;;;;;3.75;1.00;;;;;13.76;53.68;100622.41;6309223;22;45362;-68
2022/03/13 11:24:18;;;;;;;;;1.50;1.50;;;;;13.72;53.75;100620.00;6309471;22;45252;-67